Wetterdaten: Woche 13.06.16 - 19.06.16 (KW24)
Datum Zeit Temp. I. Temp. A. Feuchte I. Feuchte A. Luftdruck Regen Wind Richtung Taupunkt Windchill
13.06.2016 00:00 22,3 °C 14,4 °C 55 % 92 % 1005,0 hPa 0,0 l/m² 1,0 km/h (0 Bft) W 13,1 °C 14,4 °C
13.06.2016 01:00 22,3 °C 14,5 °C 55 % 93 % 1004,6 hPa 0,0 l/m² 0,8 km/h (0 Bft) NW 13,4 °C 14,5 °C
13.06.2016 02:00 22,2 °C 14,7 °C 55 % 93 % 1004,3 hPa 0,0 l/m² 3,3 km/h (1 Bft) NW 13,6 °C 14,6 °C
13.06.2016 03:00 22,2 °C 14,6 °C 55 % 93 % 1004,0 hPa 0,0 l/m² 2,9 km/h (1 Bft) W 13,5 °C 14,6 °C
13.06.2016 04:00 22,2 °C 14,4 °C 55 % 93 % 1003,8 hPa 0,0 l/m² 1,9 km/h (1 Bft) W 13,3 °C 14,4 °C
13.06.2016 05:00 22,1 °C 13,6 °C 55 % 93 % 1003,5 hPa 0,0 l/m² 1,4 km/h (1 Bft) W 12,5 °C 13,6 °C
13.06.2016 06:00 22,1 °C 13,6 °C 55 % 93 % 1003,3 hPa 0,0 l/m² 0,5 km/h (0 Bft) W 12,6 °C 13,6 °C
13.06.2016 07:00 22,1 °C 15,1 °C 55 % 93 % 1003,1 hPa 0,0 l/m² 2,6 km/h (1 Bft) W-SW 14,0 °C 15,1 °C
13.06.2016 08:00 22,0 °C 16,6 °C 55 % 91 % 1002,8 hPa 0,0 l/m² 3,9 km/h (1 Bft) S-SO 15,1 °C 16,4 °C
13.06.2016 09:00 22,0 °C 18,0 °C 55 % 88 % 1002,3 hPa 0,0 l/m² 7,9 km/h (2 Bft) S-SW 16,0 °C 17,1 °C
13.06.2016 10:00 22,0 °C 19,4 °C 56 % 83 % 1002,1 hPa 0,0 l/m² 13,2 km/h (3 Bft) SW 16,5 °C 17,2 °C
13.06.2016 11:00 22,1 °C 20,6 °C 56 % 77 % 1001,8 hPa 0,0 l/m² 9,9 km/h (2 Bft) W-SW 16,4 °C 19,4 °C
13.06.2016 12:00 22,1 °C 22,3 °C 56 % 70 % 1001,0 hPa 0,0 l/m² 8,9 km/h (2 Bft) SW 16,5 °C 21,3 °C
13.06.2016 13:00 22,1 °C 22,3 °C 55 % 65 % 1000,4 hPa 0,0 l/m² 7,7 km/h (2 Bft) S-SO 15,4 °C 21,7 °C
13.06.2016 14:00 22,2 °C 22,2 °C 55 % 66 % 1000,0 hPa 0,0 l/m² 5,2 km/h (1 Bft) N-NO 15,7 °C 22,1 °C
13.06.2016 15:00 22,2 °C 20,8 °C 55 % 72 % 999,6 hPa 0,0 l/m² 9,0 km/h (2 Bft) N 15,6 °C 19,7 °C
13.06.2016 16:00 22,2 °C 18,6 °C 56 % 78 % 999,4 hPa 4,7 l/m² 6,8 km/h (2 Bft) NO 14,7 °C 17,8 °C
13.06.2016 17:00 22,2 °C 18,6 °C 56 % 84 % 999,6 hPa 0,0 l/m² 4,2 km/h (1 Bft) N-NW 15,8 °C 18,3 °C
13.06.2016 18:00 22,2 °C 19,7 °C 56 % 80 % 999,3 hPa 0,0 l/m² 3,9 km/h (1 Bft) O 16,1 °C 19,7 °C
13.06.2016 19:00 22,2 °C 18,8 °C 56 % 80 % 999,3 hPa 0,0 l/m² 3,2 km/h (1 Bft) O-NO 15,3 °C 18,8 °C
13.06.2016 20:00 22,2 °C 16,6 °C 56 % 85 % 999,8 hPa 2,6 l/m² 5,9 km/h (2 Bft) S-SO 14,0 °C 15,9 °C
13.06.2016 21:00 22,2 °C 14,7 °C 56 % 90 % 999,9 hPa 1,6 l/m² 1,6 km/h (1 Bft) N-NO 13,0 °C 14,7 °C
13.06.2016 22:00 22,2 °C 14,0 °C 56 % 91 % 1000,1 hPa 0,5 l/m² 1,2 km/h (1 Bft) S 12,6 °C 14,0 °C
13.06.2016 23:00 22,1 °C 12,9 °C 56 % 92 % 999,8 hPa 0,0 l/m² 0,1 km/h (0 Bft) S 11,7 °C 12,9 °C
14.06.2016 00:00 22,1 °C 12,2 °C 56 % 93 % 999,8 hPa 0,0 l/m² 0,0 km/h (0 Bft) S 11,1 °C 12,2 °C
14.06.2016 01:00 22,1 °C 11,7 °C 56 % 94 % 999,8 hPa 0,0 l/m² 0,0 km/h (0 Bft) S 10,7 °C 11,7 °C
14.06.2016 02:00 22,1 °C 11,2 °C 56 % 94 % 999,5 hPa 0,0 l/m² 0,0 km/h (0 Bft) S 10,3 °C 11,2 °C
14.06.2016 03:00 22,0 °C 11,6 °C 56 % 94 % 999,4 hPa 0,0 l/m² 0,0 km/h (0 Bft) S 10,7 °C 11,6 °C
14.06.2016 04:00 21,9 °C 11,9 °C 56 % 94 % 999,4 hPa 0,0 l/m² 0,0 km/h (0 Bft) S 10,9 °C 11,9 °C
14.06.2016 05:00 21,9 °C 12,3 °C 56 % 95 % 999,5 hPa 0,0 l/m² 0,0 km/h (0 Bft) S 11,5 °C 12,3 °C
14.06.2016 06:00 21,8 °C 13,5 °C 56 % 95 % 999,9 hPa 0,0 l/m² 3,0 km/h (1 Bft) S-SW 12,7 °C 13,5 °C
14.06.2016 07:00 21,8 °C 14,3 °C 56 % 95 % 1000,0 hPa 0,0 l/m² 1,7 km/h (1 Bft) SW 13,5 °C 14,2 °C
14.06.2016 08:00 21,8 °C 14,9 °C 56 % 95 % 1000,3 hPa 0,0 l/m² 6,5 km/h (2 Bft) SW 14,1 °C 14,4 °C
14.06.2016 09:00 21,7 °C 16,0 °C 56 % 95 % 1000,4 hPa 0,0 l/m² 10,4 km/h (2 Bft) SW 15,1 °C 14,0 °C
14.06.2016 10:00 21,7 °C 18,3 °C 56 % 91 % 1000,1 hPa 0,0 l/m² 12,6 km/h (2 Bft) SW 16,9 °C 16,0 °C
14.06.2016 11:00 21,8 °C 20,2 °C 56 % 81 % 999,7 hPa 0,0 l/m² 14,1 km/h (3 Bft) S-SW 16,9 °C 17,8 °C
14.06.2016 12:00 21,8 °C 21,1 °C 56 % 74 % 999,2 hPa 0,0 l/m² 13,7 km/h (3 Bft) S-SW 16,1 °C 19,0 °C
14.06.2016 13:00 21,8 °C 20,2 °C 56 % 76 % 999,0 hPa 1,0 l/m² 10,0 km/h (2 Bft) S 15,7 °C 18,9 °C
14.06.2016 14:00 21,8 °C 21,0 °C 56 % 74 % 998,5 hPa 0,5 l/m² 11,3 km/h (2 Bft) S 16,3 °C 19,5 °C
14.06.2016 15:00 21,8 °C 21,8 °C 56 % 71 % 998,1 hPa 0,0 l/m² 5,9 km/h (2 Bft) W 16,2 °C 21,4 °C
14.06.2016 16:00 21,8 °C 21,5 °C 56 % 68 % 998,0 hPa 0,5 l/m² 11,0 km/h (2 Bft) S-SW 15,3 °C 20,0 °C
14.06.2016 17:00 21,9 °C 20,3 °C 56 % 72 % 998,0 hPa 0,0 l/m² 14,9 km/h (3 Bft) S 15,1 °C 17,7 °C
14.06.2016 18:00 21,9 °C 19,7 °C 56 % 74 % 997,9 hPa 0,0 l/m² 9,3 km/h (2 Bft) SO 14,9 °C 18,6 °C
14.06.2016 19:00 21,9 °C 19,0 °C 56 % 78 % 997,9 hPa 0,0 l/m² 9,4 km/h (2 Bft) SO 15,0 °C 17,9 °C
14.06.2016 20:00 21,9 °C 18,2 °C 56 % 82 % 998,3 hPa 0,0 l/m² 8,2 km/h (2 Bft) N-NW 15,0 °C 17,2 °C
14.06.2016 21:00 21,9 °C 17,2 °C 56 % 83 % 998,7 hPa 0,0 l/m² 0,5 km/h (0 Bft) N-NW 14,3 °C 17,2 °C
14.06.2016 22:00 21,9 °C 15,6 °C 56 % 88 % 999,0 hPa 0,0 l/m² 0,0 km/h (0 Bft) N-NW 13,6 °C 15,6 °C
14.06.2016 23:00 21,9 °C 14,9 °C 56 % 91 % 999,1 hPa 0,0 l/m² 0,2 km/h (0 Bft) N-NW 13,4 °C 14,9 °C
15.06.2016 00:00 21,9 °C 14,8 °C 56 % 92 % 999,1 hPa 0,0 l/m² 0,8 km/h (0 Bft) W-SW 13,5 °C 14,8 °C
15.06.2016 01:00 21,9 °C 14,8 °C 56 % 92 % 999,1 hPa 0,0 l/m² 0,8 km/h (0 Bft) O-NO 13,5 °C 14,8 °C
15.06.2016 02:00 21,9 °C 14,8 °C 56 % 92 % 999,0 hPa 0,0 l/m² 0,3 km/h (0 Bft) SO 13,6 °C 14,8 °C
15.06.2016 03:00 21,9 °C 14,2 °C 56 % 93 % 998,9 hPa 0,0 l/m² 0,6 km/h (0 Bft) SW 13,1 °C 14,2 °C
15.06.2016 04:00 21,8 °C 13,9 °C 56 % 93 % 999,0 hPa 0,0 l/m² 3,3 km/h (1 Bft) S-SW 12,8 °C 13,8 °C
15.06.2016 05:00 21,8 °C 13,5 °C 56 % 93 % 998,9 hPa 0,0 l/m² 1,5 km/h (1 Bft) SW 12,3 °C 13,4 °C
15.06.2016 06:00 21,7 °C 13,5 °C 56 % 93 % 999,2 hPa 0,0 l/m² 2,1 km/h (1 Bft) W-SW 12,3 °C 13,4 °C
15.06.2016 07:00 21,7 °C 15,6 °C 56 % 90 % 999,5 hPa 0,0 l/m² 9,3 km/h (2 Bft) W-SW 14,0 °C 14,1 °C
15.06.2016 08:00 21,6 °C 16,3 °C 56 % 87 % 999,9 hPa 0,0 l/m² 11,8 km/h (2 Bft) SW 14,1 °C 13,9 °C
15.06.2016 09:00 21,6 °C 16,4 °C 56 % 85 % 1000,3 hPa 0,0 l/m² 11,0 km/h (2 Bft) SW 13,9 °C 14,4 °C
15.06.2016 10:00 21,6 °C 16,9 °C 56 % 86 % 1000,3 hPa 0,0 l/m² 11,7 km/h (2 Bft) S-SW 14,5 °C 14,7 °C
15.06.2016 11:00 21,6 °C 18,5 °C 56 % 81 % 1000,4 hPa 0,0 l/m² 11,4 km/h (2 Bft) SW 15,2 °C 16,6 °C
15.06.2016 12:00 21,6 °C 20,2 °C 56 % 74 % 1000,0 hPa 0,0 l/m² 6,7 km/h (2 Bft) S-SW 15,4 °C 19,7 °C
15.06.2016 13:00 21,6 °C 20,9 °C 56 % 70 % 999,6 hPa 0,0 l/m² 4,7 km/h (1 Bft) S-SW 15,1 °C 20,5 °C
15.06.2016 14:00 21,6 °C 21,6 °C 56 % 65 % 999,4 hPa 0,0 l/m² 2,9 km/h (1 Bft) W-NW 14,9 °C 21,5 °C
15.06.2016 15:00 21,7 °C 22,0 °C 56 % 64 % 999,2 hPa 0,0 l/m² 10,9 km/h (2 Bft) W-SW 14,7 °C 20,6 °C
15.06.2016 16:00 21,7 °C 19,7 °C 56 % 70 % 999,3 hPa 0,0 l/m² 15,0 km/h (3 Bft) S 14,0 °C 17,0 °C
15.06.2016 17:00 21,7 °C 20,4 °C 56 % 66 % 999,8 hPa 0,0 l/m² 23,4 km/h (4 Bft) SW 13,9 °C 16,2 °C
15.06.2016 18:00 21,8 °C 20,8 °C 56 % 63 % 1000,2 hPa 0,0 l/m² 17,3 km/h (3 Bft) SW 13,4 °C 17,9 °C
15.06.2016 19:00 21,8 °C 19,4 °C 56 % 67 % 1000,5 hPa 0,0 l/m² 9,9 km/h (2 Bft) W 13,1 °C 18,1 °C
15.06.2016 20:00 21,8 °C 18,0 °C 56 % 72 % 1000,7 hPa 0,0 l/m² 3,3 km/h (1 Bft) W 12,9 °C 18,0 °C
15.06.2016 21:00 21,8 °C 15,4 °C 56 % 80 % 1001,4 hPa 0,0 l/m² 1,1 km/h (1 Bft) SW 11,9 °C 15,4 °C
15.06.2016 22:00 21,7 °C 13,7 °C 56 % 86 % 1001,9 hPa 0,0 l/m² 0,2 km/h (0 Bft) SW 11,3 °C 13,7 °C
15.06.2016 23:00 21,7 °C 13,2 °C 56 % 88 % 1002,3 hPa 0,0 l/m² 1,1 km/h (1 Bft) S-SO 11,3 °C 13,2 °C
16.06.2016 00:00 21,7 °C 12,1 °C 56 % 89 % 1002,6 hPa 0,0 l/m² 1,2 km/h (1 Bft) S-SW 10,4 °C 12,1 °C
16.06.2016 01:00 21,7 °C 11,2 °C 56 % 90 % 1002,7 hPa 0,0 l/m² 0,5 km/h (0 Bft) O-SO 9,6 °C 11,2 °C
16.06.2016 02:00 21,6 °C 10,6 °C 56 % 91 % 1002,7 hPa 0,0 l/m² 0,0 km/h (0 Bft) O-NO 9,2 °C 10,6 °C
16.06.2016 03:00 21,6 °C 9,9 °C 56 % 92 % 1002,7 hPa 0,0 l/m² 1,1 km/h (1 Bft) O-NO 8,6 °C 9,9 °C
16.06.2016 04:00 21,5 °C 9,9 °C 56 % 92 % 1002,7 hPa 0,0 l/m² 0,9 km/h (0 Bft) S-SO 8,6 °C 9,9 °C
16.06.2016 05:00 21,4 °C 9,6 °C 56 % 92 % 1003,0 hPa 0,0 l/m² 2,3 km/h (1 Bft) S-SO 8,4 °C 9,6 °C
16.06.2016 06:00 21,4 °C 11,8 °C 56 % 93 % 1003,2 hPa 0,0 l/m² 0,1 km/h (0 Bft) S-SO 10,7 °C 11,8 °C
16.06.2016 07:00 21,3 °C 14,5 °C 56 % 89 % 1003,3 hPa 0,0 l/m² 2,8 km/h (1 Bft) S-SO 12,7 °C 14,4 °C
16.06.2016 08:00 21,3 °C 16,5 °C 56 % 84 % 1003,6 hPa 0,0 l/m² 6,1 km/h (2 Bft) S 13,7 °C 16,1 °C
16.06.2016 09:00 21,3 °C 18,5 °C 56 % 77 % 1003,8 hPa 0,0 l/m² 6,9 km/h (2 Bft) S-SW 14,3 °C 17,9 °C
16.06.2016 10:00 21,3 °C 19,7 °C 56 % 70 % 1003,5 hPa 0,0 l/m² 7,7 km/h (2 Bft) S-SW 14,2 °C 18,9 °C
16.06.2016 11:00 21,4 °C 20,6 °C 56 % 67 % 1003,7 hPa 0,0 l/m² 8,9 km/h (2 Bft) S-SW 14,4 °C 19,5 °C
16.06.2016 12:00 21,4 °C 21,1 °C 56 % 67 % 1003,8 hPa 0,0 l/m² 8,5 km/h (2 Bft) SO 14,7 °C 20,3 °C
16.06.2016 13:00 21,4 °C 21,0 °C 56 % 67 % 1003,9 hPa 0,0 l/m² 5,3 km/h (1 Bft) S-SO 14,6 °C 20,7 °C
16.06.2016 14:00 21,4 °C 21,2 °C 56 % 66 % 1003,6 hPa 0,0 l/m² 4,5 km/h (1 Bft) S-SO 14,5 °C 21,1 °C
16.06.2016 15:00 21,4 °C 21,6 °C 56 % 66 % 1003,5 hPa 0,0 l/m² 6,7 km/h (2 Bft) S-SO 14,8 °C 21,2 °C
16.06.2016 16:00 21,4 °C 19,6 °C 56 % 71 % 1003,7 hPa 0,0 l/m² 4,1 km/h (1 Bft) S-SO 14,3 °C 19,5 °C
16.06.2016 17:00 21,4 °C 19,9 °C 56 % 72 % 1003,2 hPa 0,0 l/m² 5,2 km/h (1 Bft) SO 14,8 °C 19,9 °C
16.06.2016 18:00 21,4 °C 19,7 °C 56 % 70 % 1003,1 hPa 0,0 l/m² 5,9 km/h (2 Bft) SO 14,2 °C 19,3 °C
16.06.2016 19:00 21,4 °C 18,8 °C 56 % 76 % 1002,6 hPa 0,0 l/m² 5,1 km/h (1 Bft) O-SO 14,4 °C 18,5 °C
16.06.2016 20:00 21,5 °C 18,5 °C 56 % 77 % 1002,7 hPa 0,0 l/m² 0,1 km/h (0 Bft) O-SO 14,4 °C 18,5 °C
16.06.2016 21:00 21,5 °C 17,3 °C 56 % 81 % 1002,7 hPa 0,0 l/m² 1,3 km/h (1 Bft) O-SO 14,1 °C 17,3 °C
16.06.2016 22:00 21,4 °C 16,3 °C 57 % 84 % 1002,5 hPa 0,0 l/m² 0,4 km/h (0 Bft) O-SO 13,6 °C 16,3 °C
16.06.2016 23:00 21,4 °C 15,6 °C 57 % 88 % 1002,2 hPa 0,0 l/m² 0,1 km/h (0 Bft) O-SO 13,6 °C 15,6 °C
17.06.2016 00:00 21,5 °C 15,6 °C 57 % 90 % 1001,6 hPa 0,0 l/m² 0,9 km/h (0 Bft) N-NO 13,9 °C 15,6 °C
17.06.2016 01:00 21,5 °C 15,1 °C 57 % 90 % 1001,5 hPa 0,5 l/m² 1,9 km/h (1 Bft) SW 13,6 °C 15,1 °C
17.06.2016 02:00 21,5 °C 14,9 °C 57 % 92 % 1001,3 hPa 2,1 l/m² 0,6 km/h (0 Bft) W 13,6 °C 14,9 °C
17.06.2016 03:00 21,5 °C 14,8 °C 57 % 93 % 1000,7 hPa 1,0 l/m² 2,5 km/h (1 Bft) W 13,7 °C 14,8 °C
17.06.2016 04:00 21,4 °C 14,6 °C 57 % 94 % 1000,8 hPa 1,0 l/m² 1,2 km/h (1 Bft) SW 13,6 °C 14,6 °C
17.06.2016 05:00 21,4 °C 14,4 °C 57 % 94 % 1000,7 hPa 2,1 l/m² 0,8 km/h (0 Bft) SW 13,4 °C 14,4 °C
17.06.2016 06:00 21,4 °C 14,5 °C 57 % 94 % 1000,7 hPa 2,1 l/m² 1,2 km/h (1 Bft) SW 13,5 °C 14,5 °C
17.06.2016 07:00 21,4 °C 14,7 °C 57 % 94 % 1000,8 hPa 1,6 l/m² 4,5 km/h (1 Bft) W-SW 13,8 °C 14,5 °C
17.06.2016 08:00 21,3 °C 15,2 °C 57 % 95 % 1000,7 hPa 0,5 l/m² 6,8 km/h (2 Bft) W-SW 14,4 °C 14,7 °C
17.06.2016 09:00 21,3 °C 15,4 °C 57 % 95 % 1001,2 hPa 0,5 l/m² 5,7 km/h (2 Bft) W-SW 14,6 °C 15,1 °C
17.06.2016 10:00 21,2 °C 15,9 °C 58 % 94 % 1001,9 hPa 0,0 l/m² 10,6 km/h (2 Bft) SW 15,0 °C 13,9 °C
17.06.2016 11:00 21,2 °C 16,6 °C 58 % 94 % 1002,6 hPa 0,5 l/m² 12,3 km/h (2 Bft) SW 15,6 °C 14,1 °C
17.06.2016 12:00 21,2 °C 17,9 °C 58 % 91 % 1003,1 hPa 0,0 l/m² 14,8 km/h (3 Bft) SW 16,5 °C 15,0 °C
17.06.2016 13:00 21,3 °C 19,1 °C 58 % 86 % 1003,6 hPa 0,0 l/m² 19,4 km/h (3 Bft) SW 16,6 °C 15,3 °C
17.06.2016 14:00 21,3 °C 19,4 °C 58 % 78 % 1004,1 hPa 0,0 l/m² 20,0 km/h (4 Bft) SW 15,5 °C 15,7 °C
17.06.2016 15:00 21,3 °C 16,5 °C 58 % 85 % 1005,2 hPa 1,6 l/m² 13,9 km/h (3 Bft) SW 14,0 °C 14,1 °C
17.06.2016 16:00 21,3 °C 15,8 °C 58 % 89 % 1006,2 hPa 0,0 l/m² 12,6 km/h (2 Bft) S-SW 13,9 °C 13,1 °C
17.06.2016 17:00 21,3 °C 16,4 °C 57 % 89 % 1006,8 hPa 0,0 l/m² 16,2 km/h (3 Bft) SW 14,6 °C 12,8 °C
17.06.2016 18:00 21,3 °C 16,2 °C 57 % 87 % 1007,4 hPa 0,0 l/m² 16,1 km/h (3 Bft) SW 14,1 °C 12,5 °C
17.06.2016 19:00 21,2 °C 16,4 °C 58 % 89 % 1008,1 hPa 0,0 l/m² 10,8 km/h (2 Bft) SW 14,6 °C 14,5 °C
17.06.2016 20:00 21,2 °C 16,6 °C 58 % 88 % 1008,8 hPa 0,0 l/m² 13,7 km/h (3 Bft) SW 14,5 °C 13,7 °C
17.06.2016 21:00 21,1 °C 15,3 °C 58 % 87 % 1009,5 hPa 0,0 l/m² 10,6 km/h (2 Bft) SW 13,2 °C 13,4 °C
17.06.2016 22:00 21,1 °C 13,6 °C 58 % 90 % 1010,1 hPa 0,0 l/m² 4,5 km/h (1 Bft) W-SW 12,0 °C 13,0 °C
17.06.2016 23:00 21,1 °C 13,2 °C 58 % 92 % 1010,7 hPa 0,0 l/m² 4,2 km/h (1 Bft) SW 11,9 °C 12,8 °C
18.06.2016 00:00 21,1 °C 13,1 °C 58 % 93 % 1011,4 hPa 0,0 l/m² 8,1 km/h (2 Bft) S-SW 12,0 °C 12,0 °C
18.06.2016 01:00 21,1 °C 12,9 °C 58 % 93 % 1012,0 hPa 0,0 l/m² 4,8 km/h (1 Bft) S-SW 11,8 °C 12,1 °C
18.06.2016 02:00 21,0 °C 12,4 °C 58 % 93 % 1012,3 hPa 0,0 l/m² 0,7 km/h (0 Bft) N-NO 11,3 °C 12,4 °C
18.06.2016 03:00 21,0 °C 11,7 °C 58 % 94 % 1012,4 hPa 0,0 l/m² 1,7 km/h (1 Bft) NO 10,7 °C 11,7 °C
18.06.2016 04:00 21,0 °C 11,6 °C 58 % 94 % 1012,8 hPa 0,0 l/m² 5,7 km/h (2 Bft) S-SW 10,7 °C 10,9 °C
18.06.2016 05:00 20,9 °C 11,8 °C 58 % 94 % 1013,1 hPa 0,0 l/m² 2,1 km/h (1 Bft) S 10,9 °C 11,8 °C
18.06.2016 06:00 20,9 °C 12,8 °C 58 % 94 % 1013,6 hPa 0,0 l/m² 2,3 km/h (1 Bft) O 11,8 °C 12,8 °C
18.06.2016 07:00 20,9 °C 14,7 °C 58 % 93 % 1013,7 hPa 0,0 l/m² 8,4 km/h (2 Bft) SW 13,5 °C 13,1 °C
18.06.2016 08:00 21,0 °C 16,4 °C 58 % 87 % 1013,8 hPa 0,0 l/m² 15,4 km/h (3 Bft) SW 14,3 °C 13,0 °C
18.06.2016 09:00 21,0 °C 17,8 °C 57 % 82 % 1014,0 hPa 0,0 l/m² 15,0 km/h (3 Bft) SW 14,6 °C 14,8 °C
18.06.2016 10:00 21,1 °C 19,7 °C 57 % 78 % 1014,2 hPa 0,0 l/m² 19,9 km/h (4 Bft) S-SW 15,7 °C 15,9 °C
18.06.2016 11:00 21,1 °C 20,6 °C 57 % 72 % 1014,6 hPa 0,0 l/m² 20,6 km/h (4 Bft) W-SW 15,3 °C 17,0 °C
18.06.2016 12:00 21,1 °C 21,8 °C 57 % 66 % 1014,4 hPa 0,0 l/m² 21,8 km/h (4 Bft) SW 15,3 °C 18,4 °C
18.06.2016 13:00 21,1 °C 21,9 °C 57 % 64 % 1014,2 hPa 0,0 l/m² 15,6 km/h (3 Bft) SW 14,8 °C 19,5 °C
18.06.2016 14:00 21,1 °C 22,5 °C 57 % 62 % 1014,1 hPa 0,0 l/m² 17,7 km/h (3 Bft) W-SW 15,0 °C 19,9 °C
18.06.2016 15:00 21,1 °C 20,7 °C 57 % 66 % 1014,4 hPa 0,0 l/m² 15,9 km/h (3 Bft) W 14,0 °C 18,0 °C
18.06.2016 16:00 21,4 °C 17,7 °C 59 % 81 % 1014,7 hPa 0,0 l/m² 5,7 km/h (2 Bft) S-SO 14,4 °C 17,5 °C
18.06.2016 17:00 21,4 °C 17,8 °C 59 % 83 % 1014,7 hPa 0,0 l/m² 10,7 km/h (2 Bft) S-SW 15,0 °C 16,1 °C
18.06.2016 18:00 21,4 °C 19,0 °C 59 % 79 % 1014,7 hPa 0,0 l/m² 11,6 km/h (2 Bft) S 15,3 °C 17,1 °C
18.06.2016 19:00 21,4 °C 17,3 °C 61 % 82 % 1015,0 hPa 0,0 l/m² 5,3 km/h (1 Bft) SO 14,1 °C 17,0 °C
18.06.2016 20:00 21,7 °C 16,0 °C 60 % 87 % 1015,5 hPa 0,0 l/m² 0,9 km/h (0 Bft) O-SO 13,8 °C 16,0 °C
18.06.2016 21:00 21,7 °C 14,6 °C 61 % 89 % 1015,9 hPa 0,0 l/m² 1,8 km/h (1 Bft) SO 12,8 °C 14,6 °C
18.06.2016 22:00 21,9 °C 13,3 °C 61 % 91 % 1016,4 hPa 0,0 l/m² 1,1 km/h (1 Bft) S-SW 11,9 °C 13,3 °C
18.06.2016 23:00 22,0 °C 12,7 °C 60 % 92 % 1016,4 hPa 0,0 l/m² 1,9 km/h (1 Bft) W-SW 11,3 °C 12,7 °C
19.06.2016 00:00 22,2 °C 12,0 °C 59 % 92 % 1016,6 hPa 0,0 l/m² 1,7 km/h (1 Bft) W-SW 10,7 °C 12,0 °C
19.06.2016 01:00 22,4 °C 11,1 °C 59 % 92 % 1016,7 hPa 0,0 l/m² 1,7 km/h (1 Bft) O-NO 9,9 °C 11,1 °C
19.06.2016 02:00 22,3 °C 10,5 °C 58 % 93 % 1017,2 hPa 0,0 l/m² 0,4 km/h (0 Bft) O 9,4 °C 10,5 °C
19.06.2016 03:00 21,9 °C 10,3 °C 58 % 94 % 1017,6 hPa 0,0 l/m² 0,2 km/h (0 Bft) O-NO 9,3 °C 10,3 °C
19.06.2016 04:00 21,7 °C 10,3 °C 58 % 94 % 1018,2 hPa 0,0 l/m² 0,1 km/h (0 Bft) O-NO 9,3 °C 10,3 °C
19.06.2016 05:00 21,6 °C 10,9 °C 58 % 94 % 1018,6 hPa 0,0 l/m² 0,9 km/h (0 Bft) O-NO 10,0 °C 10,9 °C
19.06.2016 06:00 21,4 °C 11,7 °C 58 % 95 % 1019,2 hPa 0,0 l/m² 0,9 km/h (0 Bft) O-SO 10,9 °C 11,7 °C
19.06.2016 07:00 21,4 °C 13,6 °C 58 % 95 % 1019,7 hPa 0,0 l/m² 0,8 km/h (0 Bft) O-SO 12,8 °C 13,6 °C
19.06.2016 08:00 21,3 °C 16,6 °C 58 % 93 % 1020,2 hPa 0,0 l/m² 5,4 km/h (1 Bft) W-SW 15,4 °C 16,2 °C
19.06.2016 09:00 21,4 °C 17,5 °C 60 % 82 % 1020,6 hPa 0,0 l/m² 2,0 km/h (1 Bft) N-NW 14,4 °C 17,5 °C
19.06.2016 10:00 21,5 °C 18,0 °C 59 % 78 % 1020,8 hPa 0,0 l/m² 4,0 km/h (1 Bft) N-NW 14,1 °C 17,8 °C
19.06.2016 11:00 21,5 °C 17,6 °C 58 % 78 % 1021,2 hPa 0,0 l/m² 2,5 km/h (1 Bft) N-NW 13,7 °C 17,6 °C
19.06.2016 12:00 21,6 °C 18,2 °C 61 % 77 % 1021,3 hPa 0,0 l/m² 2,6 km/h (1 Bft) NW 14,1 °C 18,2 °C
19.06.2016 13:00 21,6 °C 19,2 °C 59 % 71 % 1021,5 hPa 0,0 l/m² 8,7 km/h (2 Bft) W 13,9 °C 18,1 °C
19.06.2016 14:00 21,6 °C 19,0 °C 59 % 75 % 1021,5 hPa 0,0 l/m² 11,2 km/h (2 Bft) W-NW 14,4 °C 17,3 °C
19.06.2016 15:00 21,8 °C 20,7 °C 60 % 68 % 1021,8 hPa 0,0 l/m² 12,4 km/h (2 Bft) NW 14,7 °C 18,9 °C
19.06.2016 16:00 22,1 °C 19,4 °C 60 % 71 % 1021,7 hPa 0,0 l/m² 9,4 km/h (2 Bft) NW 14,0 °C 18,3 °C
19.06.2016 17:00 22,1 °C 20,3 °C 59 % 67 % 1021,6 hPa 0,0 l/m² 8,9 km/h (2 Bft) W 14,0 °C 19,3 °C
19.06.2016 18:00 22,0 °C 21,0 °C 58 % 64 % 1021,6 hPa 0,0 l/m² 10,0 km/h (2 Bft) W 13,9 °C 19,7 °C
19.06.2016 19:00 21,9 °C 20,0 °C 57 % 64 % 1021,7 hPa 0,0 l/m² 8,1 km/h (2 Bft) W 13,1 °C 19,2 °C
19.06.2016 20:00 21,8 °C 17,5 °C 57 % 70 % 1022,2 hPa 0,0 l/m² 4,7 km/h (1 Bft) NW 12,0 °C 17,2 °C
19.06.2016 21:00 21,9 °C 15,3 °C 60 % 78 % 1022,6 hPa 0,0 l/m² 1,3 km/h (1 Bft) NW 11,4 °C 15,3 °C
19.06.2016 22:00 22,2 °C 13,5 °C 60 % 82 % 1022,9 hPa 0,0 l/m² 3,4 km/h (1 Bft) NW 10,6 °C 13,5 °C
19.06.2016 23:00 22,3 °C 13,0 °C 58 % 85 % 1023,3 hPa 0,0 l/m² 2,3 km/h (1 Bft) NW 10,6 °C 13,0 °C
Min-Datum _ 18.06.16 16.06.16 13.06.16 18.06.16 14.06.16 - 19.06.16 - 16.06.16 18.06.16
_ Min-Zeit 07:01 05:21 17:07 14:41 19:01 - 23:01 - 05:21 04:47
Minimum _ 20,9 °C 9,4 °C 55 % 60 % 997,7 hPa - 0,0 km/h (0 Bft) - 8,2 °C 8,0 °C
Max-Datum _ 19.06.16 18.06.16 19.06.16 19.06.16 19.06.16 13.06.16 17.06.16 - 14.06.16 15.06.16
_ Max-Zeit 23:01 14:39 12:29 08:01 23:45 16:37 15:15 - 10:49 15:15
Maximum _ 22,4 °C 23,4 °C 62 % 95 % 1023,5 hPa 4,7 l/m² 44,6 km/h
SW (6 Bft)
- 17,2 °C 23,1 °C
Durchschnitt _ 21,7 °C 16,4 °C 57 % 84 % 1006,1 hPa #24,9 l/m² 6,1 km/h (2 Bft) SW 13,5 °C 15,6 °C
© 2009 Mathias Hoßbach